createdAt,value
2023-06-29T00:01:45.511Z,2.22
2023-06-29T00:04:12.671Z,1.73
2023-06-29T00:06:39.664Z,2.50
2023-06-29T00:09:07.097Z,2.45
2023-06-29T00:11:34.492Z,2.40
2023-06-29T00:14:01.552Z,2.05
2023-06-29T00:16:31.843Z,1.95
2023-06-29T00:19:01.403Z,2.42
2023-06-29T00:21:31.095Z,2.50
2023-06-29T00:23:58.133Z,2.25
2023-06-29T00:26:29.716Z,3.38
2023-06-29T00:28:57.466Z,2.35
2023-06-29T00:31:25.691Z,2.22
2023-06-29T00:33:52.866Z,2.60
2023-06-29T00:36:19.936Z,1.75
2023-06-29T00:38:48.080Z,2.22
2023-06-29T00:41:16.928Z,2.33
2023-06-29T00:43:46.823Z,2.30
2023-06-29T00:46:14.124Z,2.28
2023-06-29T00:48:41.162Z,2.25
2023-06-29T00:51:08.282Z,2.03
2023-06-29T00:53:35.348Z,2.15
2023-06-29T00:56:02.954Z,2.30
2023-06-29T00:58:30.269Z,2.33
2023-06-29T01:00:58.765Z,2.50
2023-06-29T01:03:29.255Z,1.85
2023-06-29T01:05:57.667Z,2.53
2023-06-29T01:08:30.386Z,2.80
2023-06-29T01:10:57.530Z,2.03
2023-06-29T01:13:24.513Z,2.63
2023-06-29T01:15:51.533Z,2.40
2023-06-29T01:18:19.915Z,2.55
2023-06-29T01:20:50.647Z,2.38
2023-06-29T01:23:26.369Z,2.20
2023-06-29T01:25:56.939Z,2.45
2023-06-29T01:28:27.240Z,2.20
2023-06-29T01:30:54.320Z,2.15
2023-06-29T01:33:22.800Z,2.50
2023-06-29T01:35:58.304Z,2.72
2023-06-29T01:38:45.941Z,2.40
2023-06-29T01:41:13.714Z,2.53
2023-06-29T01:43:40.754Z,3.05
2023-06-29T01:46:07.769Z,2.35
2023-06-29T01:48:34.951Z,2.63
2023-06-29T01:51:02.681Z,2.20
2023-06-29T01:53:32.570Z,2.15
2023-06-29T01:55:59.978Z,2.88
2023-06-29T01:58:27.112Z,2.38
2023-06-29T02:00:54.203Z,2.75
2023-06-29T02:03:21.500Z,2.67
2023-06-29T02:05:48.927Z,3.45
2023-06-29T02:08:15.980Z,2.75
2023-06-29T02:10:42.989Z,2.60
2023-06-29T02:13:10.061Z,3.17
2023-06-29T02:15:37.047Z,3.00
2023-06-29T02:18:06.643Z,3.67
2023-06-29T02:20:34.080Z,3.17
2023-06-29T02:23:01.567Z,4.22
2023-06-29T02:25:28.584Z,3.38
2023-06-29T02:27:56.294Z,3.72
2023-06-29T02:30:23.309Z,4.03
2023-06-29T02:32:51.345Z,3.97
2023-06-29T02:35:18.939Z,4.13
2023-06-29T02:37:46.176Z,4.00
2023-06-29T02:40:13.901Z,4.60
2023-06-29T02:42:41.814Z,5.38
2023-06-29T02:45:11.482Z,4.63
2023-06-29T02:47:39.604Z,4.68
2023-06-29T02:50:07.494Z,4.35
2023-06-29T02:52:43.164Z,4.80
2023-06-29T02:55:10.273Z,4.38
2023-06-29T02:57:37.591Z,5.38
2023-06-29T03:00:05.410Z,5.32
2023-06-29T03:02:32.662Z,4.65
2023-06-29T03:05:01.383Z,5.63
2023-06-29T03:07:28.862Z,5.18
2023-06-29T03:09:55.915Z,4.63
2023-06-29T03:12:23.524Z,4.60
2023-06-29T03:14:50.685Z,4.90
2023-06-29T03:17:17.693Z,3.75
2023-06-29T03:19:46.140Z,3.97
2023-06-29T03:22:13.230Z,4.07
2023-06-29T03:24:40.255Z,3.60
2023-06-29T03:27:07.520Z,3.17
2023-06-29T03:29:34.572Z,3.80
2023-06-29T03:32:01.569Z,3.33
2023-06-29T03:34:28.666Z,3.53
2023-06-29T03:36:55.823Z,3.15
2023-06-29T03:39:22.856Z,3.08
2023-06-29T03:41:49.952Z,4.38
2023-06-29T03:44:16.995Z,3.83
2023-06-29T03:46:44.125Z,3.00
2023-06-29T03:49:11.369Z,3.90
2023-06-29T03:51:38.375Z,2.28
2023-06-29T03:54:05.526Z,2.85
2023-06-29T03:56:33.676Z,1.60
2023-06-29T03:59:00.655Z,1.63
2023-06-29T04:01:27.645Z,0.90
2023-06-29T04:03:54.898Z,1.02
2023-06-29T04:06:21.967Z,0.40
2023-06-29T04:08:49.057Z,0.28
2023-06-29T04:11:16.052Z,0.20
2023-06-29T04:13:43.107Z,0.15
2023-06-29T04:16:10.757Z,0.25
2023-06-29T04:18:38.622Z,0.10
2023-06-29T04:21:05.675Z,0.00
2023-06-29T04:23:32.824Z,0.00
2023-06-29T04:26:04.105Z,0.00
2023-06-29T04:28:34.756Z,0.00
2023-06-29T04:31:02.019Z,0.00
2023-06-29T04:33:29.292Z,0.00
2023-06-29T04:35:56.559Z,0.00
2023-06-29T04:38:27.904Z,0.00
2023-06-29T04:41:05.263Z,0.00
2023-06-29T04:43:32.993Z,0.00
2023-06-29T04:46:01.706Z,0.00
2023-06-29T04:48:38.537Z,0.00
2023-06-29T04:51:06.709Z,0.00
2023-06-29T04:53:38.039Z,0.00
2023-06-29T04:56:05.460Z,0.00
2023-06-29T04:58:32.916Z,0.00
2023-06-29T05:01:00.019Z,0.00
2023-06-29T05:03:27.996Z,0.00
2023-06-29T05:05:56.764Z,0.00
2023-06-29T05:32:45.682Z,0.00
2023-06-29T05:35:18.997Z,0.00
2023-06-29T05:37:47.342Z,0.00
2023-06-29T05:40:15.100Z,0.00
2023-06-29T05:42:42.222Z,0.00
2023-06-29T05:45:09.567Z,0.00
2023-06-29T05:47:36.588Z,0.00
2023-06-29T05:50:05.394Z,0.00
2023-06-29T05:52:34.907Z,0.00
2023-06-29T05:55:03.405Z,0.00
2023-06-29T05:57:30.699Z,0.00
2023-06-29T05:59:57.903Z,0.00
2023-06-29T06:02:25.134Z,0.00
2023-06-29T06:04:52.262Z,0.00
2023-06-29T06:07:29.749Z,0.00
2023-06-29T06:09:57.676Z,0.00
2023-06-29T06:12:24.826Z,0.00
2023-06-29T06:14:51.835Z,0.00
2023-06-29T06:17:18.944Z,0.00
2023-06-29T06:19:46.581Z,0.00
2023-06-29T06:22:13.733Z,0.00
2023-06-29T06:24:40.956Z,0.00
2023-06-29T06:27:08.294Z,0.00
2023-06-29T06:29:35.483Z,0.00
2023-06-29T06:32:02.455Z,0.00
2023-06-29T06:34:31.880Z,0.00
2023-06-29T06:36:59.376Z,0.00
2023-06-29T06:39:26.513Z,0.00
2023-06-29T06:41:53.575Z,0.00
2023-06-29T06:44:23.514Z,0.00
2023-06-29T06:46:50.552Z,0.20
2023-06-29T06:49:17.581Z,0.00
2023-06-29T06:51:44.597Z,0.00
2023-06-29T06:54:11.716Z,0.00
2023-06-29T06:56:39.022Z,0.00
2023-06-29T06:59:06.197Z,0.00
2023-06-29T07:01:33.588Z,0.00
2023-06-29T07:04:00.741Z,0.00
2023-06-29T07:06:32.240Z,0.00
2023-06-29T07:09:00.560Z,0.00
2023-06-29T07:11:28.286Z,0.00
2023-06-29T07:13:55.381Z,0.00
2023-06-29T07:16:24.593Z,0.10
2023-06-29T07:21:35.980Z,0.10
2023-06-29T07:24:07.092Z,0.10
2023-06-29T07:26:36.672Z,0.00
2023-06-29T07:29:07.028Z,0.15
2023-06-29T07:31:34.795Z,0.10
2023-06-29T07:34:01.894Z,0.10
2023-06-29T07:36:30.481Z,0.03
2023-06-29T07:38:58.005Z,0.00
2023-06-29T07:41:25.400Z,0.00
2023-06-29T07:43:54.594Z,0.10
2023-06-29T07:46:21.878Z,0.10
2023-06-29T07:48:49.527Z,0.00
2023-06-29T07:51:16.919Z,0.10
2023-06-29T07:53:44.509Z,0.10
2023-06-29T07:56:11.645Z,0.10
2023-06-29T07:58:39.922Z,0.08
2023-06-29T08:01:07.614Z,0.10
2023-06-29T08:03:44.094Z,0.10
2023-06-29T08:08:49.493Z,0.10
2023-06-29T08:11:16.619Z,0.10
2023-06-29T08:13:43.851Z,0.10
2023-06-29T08:16:10.965Z,0.10
2023-06-29T08:18:38.154Z,0.10
2023-06-29T08:21:05.098Z,0.10
2023-06-29T08:23:33.702Z,0.10
2023-06-29T08:26:00.822Z,0.10
2023-06-29T08:28:27.919Z,0.00
2023-06-29T08:30:54.907Z,0.05
2023-06-29T08:33:24.805Z,0.10
2023-06-29T08:35:52.770Z,0.10
2023-06-29T08:38:19.921Z,0.10
2023-06-29T08:40:50.136Z,0.10
2023-06-29T08:43:17.209Z,0.00
2023-06-29T08:45:44.732Z,0.10
2023-06-29T08:48:13.849Z,0.10
2023-06-29T08:50:46.810Z,0.15
2023-06-29T08:53:24.607Z,0.10
2023-06-29T08:56:45.035Z,0.10
2023-06-29T08:59:36.687Z,0.25
2023-06-29T09:03:04.083Z,0.10
2023-06-29T09:10:25.170Z,0.10
2023-06-29T09:15:18.360Z,0.15
2023-06-29T09:21:59.318Z,0.00
2023-06-29T09:24:49.555Z,0.00
2023-06-29T09:27:41.229Z,0.00
2023-06-29T09:30:21.363Z,0.10
2023-06-29T09:33:08.284Z,0.10
2023-06-29T09:36:09.748Z,0.00
2023-06-29T09:38:57.519Z,0.00
2023-06-29T09:41:56.114Z,0.00
2023-06-29T09:44:26.134Z,0.00
2023-06-29T09:49:25.234Z,0.00
2023-06-29T09:51:52.263Z,0.00
2023-06-29T09:54:20.814Z,0.00
2023-06-29T09:56:48.028Z,0.00
2023-06-29T09:59:15.128Z,0.00
2023-06-29T10:01:42.405Z,0.00
2023-06-29T10:04:09.615Z,0.00
2023-06-29T10:06:49.476Z,0.00
2023-06-29T10:09:20.807Z,0.00
2023-06-29T10:11:54.609Z,0.00
2023-06-29T10:14:22.415Z,0.00
2023-06-29T10:16:54.140Z,0.00
2023-06-29T10:19:22.577Z,0.00
2023-06-29T10:21:55.318Z,0.00
2023-06-29T10:24:27.248Z,0.00
2023-06-29T10:26:54.220Z,0.00
2023-06-29T10:29:21.180Z,0.00
2023-06-29T10:31:56.078Z,0.00
2023-06-29T10:34:23.082Z,0.00
2023-06-29T10:36:50.951Z,0.00
2023-06-29T10:39:42.163Z,0.00
2023-06-29T10:42:33.233Z,0.10
2023-06-29T10:45:00.265Z,0.00
2023-06-29T10:47:31.742Z,0.00
2023-06-29T10:50:11.115Z,0.00
2023-06-29T10:52:41.772Z,0.00
2023-06-29T10:55:21.746Z,0.00
2023-06-29T10:58:15.919Z,0.00
2023-06-29T11:00:43.334Z,0.00
2023-06-29T11:03:11.486Z,0.15
2023-06-29T11:05:38.863Z,0.00
2023-06-29T11:08:08.301Z,0.00
2023-06-29T11:10:35.496Z,0.00
2023-06-29T11:13:08.041Z,0.13
2023-06-29T11:15:35.606Z,0.05
2023-06-29T11:18:07.640Z,0.00
2023-06-29T11:20:37.104Z,0.00
2023-06-29T11:23:04.204Z,0.00
2023-06-29T11:25:31.288Z,0.00
2023-06-29T11:27:58.770Z,0.00
2023-06-29T11:30:25.961Z,0.00
2023-06-29T11:32:53.721Z,0.30
2023-06-29T11:35:22.450Z,0.00
2023-06-29T11:37:57.514Z,0.00
2023-06-29T11:40:25.339Z,0.00
2023-06-29T11:42:53.227Z,0.00
2023-06-29T11:45:22.419Z,0.00
2023-06-29T11:47:55.464Z,0.00
2023-06-29T11:50:25.248Z,0.00
2023-06-29T11:52:52.766Z,0.00
2023-06-29T11:55:22.306Z,0.00
2023-06-29T11:57:55.010Z,0.00
2023-06-29T12:00:23.209Z,0.00
2023-06-29T12:02:51.007Z,0.00
2023-06-29T12:05:18.135Z,0.00
2023-06-29T12:07:46.561Z,0.00
2023-06-29T12:10:23.640Z,0.00
2023-06-29T12:12:56.951Z,0.00
2023-06-29T12:15:25.907Z,0.00
2023-06-29T12:18:00.558Z,0.10
2023-06-29T12:20:28.713Z,0.00
2023-06-29T12:23:48.400Z,0.00
2023-06-29T12:26:16.351Z,0.05
2023-06-29T12:28:43.578Z,0.00
2023-06-29T12:31:10.957Z,0.00
2023-06-29T12:33:38.681Z,0.00
2023-06-29T12:36:09.207Z,0.00
2023-06-29T12:38:39.436Z,0.00
2023-06-29T12:41:07.024Z,0.00
2023-06-29T12:43:34.814Z,0.00
2023-06-29T12:46:04.808Z,0.00
2023-06-29T12:48:31.877Z,0.00
2023-06-29T12:51:01.222Z,0.00
2023-06-29T12:53:33.797Z,0.00
2023-06-29T12:56:14.591Z,0.00
2023-06-29T12:58:44.822Z,0.00
2023-06-29T13:01:11.993Z,0.00
2023-06-29T13:03:39.200Z,0.10
2023-06-29T13:06:06.432Z,0.00
2023-06-29T13:08:34.769Z,0.00
2023-06-29T13:11:02.161Z,0.00
2023-06-29T13:13:29.179Z,0.00
2023-06-29T13:15:56.647Z,0.08
2023-06-29T13:18:23.715Z,0.00
2023-06-29T13:20:50.885Z,0.00
2023-06-29T13:23:17.888Z,0.00
2023-06-29T13:25:45.132Z,0.00
2023-06-29T13:28:13.080Z,0.00
2023-06-29T13:31:06.618Z,0.00
2023-06-29T13:33:33.657Z,0.00
2023-06-29T13:36:00.617Z,0.00
2023-06-29T13:38:27.649Z,0.00
2023-06-29T13:40:54.709Z,0.00
2023-06-29T13:43:21.725Z,0.00
2023-06-29T13:45:50.312Z,0.00
2023-06-29T13:48:17.733Z,0.00
2023-06-29T13:50:44.744Z,0.00
2023-06-29T13:53:11.831Z,0.00
2023-06-29T13:55:39.044Z,0.00
2023-06-29T13:58:06.469Z,0.00
2023-06-29T14:00:33.621Z,0.00
2023-06-29T14:03:00.745Z,0.00
2023-06-29T14:05:27.880Z,0.00
2023-06-29T14:07:54.981Z,0.00
2023-06-29T14:10:22.127Z,0.10
2023-06-29T14:12:49.147Z,0.00
2023-06-29T14:15:16.124Z,0.00
2023-06-29T14:17:43.554Z,0.00
2023-06-29T14:20:11.156Z,0.00
2023-06-29T14:22:38.199Z,0.00
2023-06-29T14:25:06.137Z,0.00
2023-06-29T14:27:33.203Z,0.00
2023-06-29T14:30:00.404Z,0.00
2023-06-29T14:32:28.084Z,0.00
2023-06-29T14:34:55.303Z,0.00
2023-06-29T14:37:22.428Z,1.08
2023-06-29T14:39:49.486Z,0.00
2023-06-29T14:42:16.720Z,0.00
2023-06-29T14:44:45.112Z,8.27
2023-06-29T14:47:12.233Z,0.00
2023-06-29T14:49:39.238Z,0.00
2023-06-29T14:52:06.433Z,0.00
2023-06-29T14:54:33.488Z,0.00
2023-06-29T14:57:00.518Z,0.00
2023-06-29T14:59:27.584Z,0.00
2023-06-29T15:01:54.668Z,0.00
2023-06-29T15:04:21.696Z,0.00
2023-06-29T15:06:52.326Z,0.00
2023-06-29T15:09:19.943Z,0.00
2023-06-29T15:11:47.022Z,0.00
2023-06-29T15:14:14.175Z,0.00
2023-06-29T15:16:42.299Z,0.00
2023-06-29T15:19:09.424Z,0.05
2023-06-29T15:21:36.414Z,0.00
2023-06-29T15:24:03.513Z,0.00
2023-06-29T15:26:30.530Z,0.00
2023-06-29T15:28:57.748Z,0.00
2023-06-29T15:31:24.798Z,0.00
2023-06-29T15:33:51.966Z,0.00
2023-06-29T15:36:18.962Z,0.00
2023-06-29T15:38:46.080Z,0.00
2023-06-29T15:41:13.137Z,0.00
2023-06-29T15:43:40.264Z,0.00
2023-06-29T15:46:07.659Z,0.00
2023-06-29T15:48:34.899Z,0.00
2023-06-29T15:51:02.193Z,0.10
2023-06-29T15:53:29.329Z,0.00
2023-06-29T15:55:56.271Z,0.00
2023-06-29T15:58:23.315Z,0.00
2023-06-29T16:00:50.439Z,0.00
2023-06-29T16:03:17.618Z,0.00
2023-06-29T16:05:44.904Z,0.00
2023-06-29T16:08:12.081Z,0.00
2023-06-29T16:10:39.436Z,0.00
2023-06-29T16:13:06.582Z,0.00
2023-06-29T16:15:33.544Z,0.00
2023-06-29T16:18:00.646Z,0.00
2023-06-29T16:20:27.659Z,0.00
2023-06-29T16:22:54.855Z,0.00
2023-06-29T16:25:24.898Z,0.00
2023-06-29T16:27:52.248Z,0.00
2023-06-29T16:30:19.353Z,0.00
2023-06-29T16:32:46.623Z,0.00
2023-06-29T16:35:14.155Z,0.32
2023-06-29T16:37:42.230Z,0.00
2023-06-29T16:40:09.667Z,0.00
2023-06-29T16:42:36.704Z,0.00
2023-06-29T16:45:04.144Z,0.00
2023-06-29T16:47:31.834Z,0.00
2023-06-29T16:49:58.905Z,0.00
2023-06-29T16:52:25.980Z,0.00
2023-06-29T16:54:53.164Z,0.13
2023-06-29T16:57:20.284Z,0.00
2023-06-29T16:59:47.296Z,0.00
2023-06-29T17:02:14.480Z,0.00
2023-06-29T17:04:41.688Z,0.00
2023-06-29T17:07:08.915Z,0.00
2023-06-29T17:09:35.881Z,0.10
2023-06-29T17:12:03.290Z,0.00
2023-06-29T17:14:30.308Z,0.00
2023-06-29T17:16:58.113Z,0.00
2023-06-29T17:19:25.236Z,0.00
2023-06-29T17:21:52.236Z,0.10
2023-06-29T17:24:19.573Z,0.20
2023-06-29T17:26:46.648Z,0.00
2023-06-29T17:29:15.369Z,0.00
2023-06-29T17:31:42.615Z,0.00
2023-06-29T17:34:10.170Z,0.00
2023-06-29T17:36:37.872Z,0.00
2023-06-29T17:39:05.403Z,0.10
2023-06-29T17:41:32.940Z,0.00
2023-06-29T17:44:00.104Z,0.00
2023-06-29T17:46:27.724Z,0.00
2023-06-29T17:48:55.402Z,0.00
2023-06-29T17:51:22.850Z,0.00
2023-06-29T17:53:49.899Z,0.00
2023-06-29T17:56:17.083Z,0.00
2023-06-29T17:58:44.737Z,0.05
2023-06-29T18:01:16.791Z,0.08
2023-06-29T18:03:43.973Z,0.00
2023-06-29T18:06:12.847Z,0.00
2023-06-29T18:08:40.727Z,0.00
2023-06-29T18:11:09.115Z,0.00
2023-06-29T18:13:36.233Z,0.00
2023-06-29T18:16:03.593Z,0.10
2023-06-29T18:18:32.223Z,0.00
2023-06-29T18:21:01.453Z,0.00
2023-06-29T18:23:28.600Z,0.00
2023-06-29T18:25:55.672Z,0.10
2023-06-29T18:28:22.722Z,0.05
2023-06-29T18:30:49.847Z,0.10
2023-06-29T18:33:17.019Z,0.10
2023-06-29T18:35:44.670Z,0.00
2023-06-29T18:38:12.101Z,0.00
2023-06-29T18:41:27.451Z,0.00
2023-06-29T18:43:54.502Z,0.22
2023-06-29T18:46:21.490Z,0.00
2023-06-29T18:48:48.526Z,0.00
2023-06-29T18:51:15.534Z,0.00
2023-06-29T18:53:42.570Z,0.00
2023-06-29T18:56:14.618Z,0.00
2023-06-29T18:58:42.328Z,0.10
2023-06-29T19:01:09.326Z,0.00
2023-06-29T19:03:36.458Z,0.00
2023-06-29T19:06:03.673Z,0.00
2023-06-29T19:08:30.809Z,0.00
2023-06-29T19:10:57.884Z,0.00
2023-06-29T19:13:25.178Z,0.00
2023-06-29T19:15:53.280Z,0.10
2023-06-29T19:22:31.721Z,0.00
2023-06-29T19:25:00.062Z,0.00
2023-06-29T19:27:27.309Z,0.20
2023-06-29T19:29:54.470Z,0.10
2023-06-29T19:32:24.473Z,0.00
2023-06-29T19:34:54.174Z,0.00
2023-06-29T19:37:26.194Z,0.00
2023-06-29T19:39:53.275Z,0.00
2023-06-29T19:42:20.296Z,0.00
2023-06-29T19:44:47.624Z,0.10
2023-06-29T19:47:14.710Z,0.10
2023-06-29T19:49:41.916Z,0.00
2023-06-29T19:52:09.718Z,0.05
2023-06-29T19:54:36.994Z,0.00
2023-06-29T19:57:04.305Z,0.00
2023-06-29T19:59:31.943Z,0.43
2023-06-29T20:01:58.953Z,0.00
2023-06-29T20:04:26.206Z,0.00
2023-06-29T20:06:53.546Z,0.00
2023-06-29T20:09:20.776Z,0.08
2023-06-29T20:11:47.738Z,0.00
2023-06-29T20:14:14.852Z,0.05
2023-06-29T20:16:42.300Z,0.05
2023-06-29T20:19:09.461Z,0.10
2023-06-29T20:21:36.582Z,0.00
2023-06-29T20:24:03.674Z,0.10
2023-06-29T20:26:31.753Z,0.20
2023-06-29T20:28:59.032Z,0.25
2023-06-29T20:31:26.217Z,0.35
2023-06-29T20:33:53.488Z,0.20
2023-06-29T20:36:20.787Z,0.20
2023-06-29T20:38:47.908Z,0.20
2023-06-29T20:41:15.096Z,0.20
2023-06-29T20:43:47.393Z,0.13
2023-06-29T20:46:18.783Z,0.10
2023-06-29T20:48:45.878Z,0.10
2023-06-29T20:51:18.085Z,0.10
2023-06-29T20:53:46.289Z,0.10
2023-06-29T20:56:13.422Z,0.10
2023-06-29T20:58:40.780Z,0.10
2023-06-29T21:01:08.098Z,0.10
2023-06-29T21:03:35.684Z,0.10
2023-06-29T21:06:03.350Z,0.10
2023-06-29T21:08:30.692Z,0.20
2023-06-29T21:10:57.808Z,0.20
2023-06-29T21:13:25.182Z,0.38
2023-06-29T21:15:52.542Z,0.25
2023-06-29T21:18:19.948Z,0.10
2023-06-29T21:20:47.143Z,0.10
2023-06-29T21:23:14.355Z,0.20
2023-06-29T21:25:41.705Z,0.10
2023-06-29T21:28:10.928Z,0.10
2023-06-29T21:30:39.156Z,0.10
2023-06-29T21:33:06.712Z,0.10
2023-06-29T21:35:35.016Z,0.10
2023-06-29T21:38:02.430Z,0.10
2023-06-29T21:40:29.811Z,0.30
2023-06-29T21:42:57.257Z,0.20
2023-06-29T21:45:26.035Z,0.10
2023-06-29T21:47:54.008Z,0.10
2023-06-29T21:50:21.413Z,0.65
2023-06-29T21:52:48.861Z,0.20
2023-06-29T21:55:16.257Z,0.10
2023-06-29T21:57:43.738Z,0.10
2023-06-29T22:00:13.429Z,0.10
2023-06-29T22:02:44.977Z,0.10
2023-06-29T22:05:14.188Z,0.20
2023-06-29T22:07:41.750Z,0.10
2023-06-29T22:10:09.712Z,0.15
2023-06-29T22:12:45.769Z,0.20
2023-06-29T22:17:43.644Z,0.20
2023-06-29T22:20:14.615Z,0.20
2023-06-29T22:22:42.624Z,0.20
2023-06-29T22:25:10.052Z,0.15
2023-06-29T22:27:37.211Z,0.15
2023-06-29T22:30:04.729Z,0.20
2023-06-29T22:32:34.173Z,0.30
2023-06-29T22:35:01.315Z,0.10
2023-06-29T22:37:28.469Z,0.30
2023-06-29T22:39:55.792Z,0.15
2023-06-29T22:42:22.973Z,0.20
2023-06-29T22:44:50.190Z,0.20
2023-06-29T22:47:17.353Z,0.35
2023-06-29T22:49:44.519Z,0.10
2023-06-29T22:52:11.718Z,0.20
2023-06-29T22:54:38.751Z,0.20
2023-06-29T22:57:06.203Z,0.10
2023-06-29T22:59:33.550Z,0.10
2023-06-29T23:02:02.635Z,0.20
2023-06-29T23:04:29.746Z,0.10
2023-06-29T23:06:56.768Z,0.10
2023-06-29T23:09:24.637Z,0.17
2023-06-29T23:11:51.770Z,0.10
2023-06-29T23:14:19.122Z,0.10
2023-06-29T23:16:47.895Z,0.30
2023-06-29T23:19:15.069Z,0.10
2023-06-29T23:21:42.229Z,0.10
2023-06-29T23:24:14.525Z,0.15
2023-06-29T23:26:42.372Z,0.20
2023-06-29T23:29:09.430Z,0.13
2023-06-29T23:31:36.558Z,0.10
2023-06-29T23:38:27.074Z,0.20
2023-06-29T23:41:04.159Z,0.20
2023-06-29T23:43:48.766Z,0.70
2023-06-29T23:46:16.822Z,0.10
2023-06-29T23:48:44.033Z,0.10
2023-06-29T23:51:11.063Z,0.10
2023-06-29T23:53:38.266Z,0.10
2023-06-29T23:56:05.401Z,0.15
2023-06-29T23:58:32.774Z,0.10
